Terminal Aerodrome Forecast
Issued by NWS Chicago, IL

Home | Current Version | Previous Version | Graphics & Text | Print | Product List | Glossary On
Versions: 1 2 3 4 5 6 7 8 9 10 11 12 13 14 15 16 17 18 19 20 21 22 23 24 25 26 27 28
000
FTUS43 KLOT 210251 AAA
TAFRFD
TAF AMD
KRFD 210251Z 2103/2124 17010KT P6SM BKN250 WS010/21045KT
     FM211200 18012G18KT P6SM BKN200
     FM211700 18016G25KT P6SM SCT080 BKN150
     FM212200 17013G20KT P6SM SCT045 BKN080=

USA.gov is the U.S. government's official web portal to all federal, state and local government web resources and services.